sensor_id;sensor_type;location;lat;lon;timestamp;P1;durP1;ratioP1;P2;durP2;ratioP2
12816;SDS011;6473;51.552;6.716;2024-03-06T00:00:02;23.65;;;16.08;;
12816;SDS011;6473;51.552;6.716;2024-03-06T00:02:29;23.50;;;15.93;;
12816;SDS011;6473;51.552;6.716;2024-03-06T00:04:56;23.27;;;14.93;;
12816;SDS011;6473;51.552;6.716;2024-03-06T00:07:24;23.17;;;14.80;;
12816;SDS011;6473;51.552;6.716;2024-03-06T00:09:52;25.50;;;15.65;;
12816;SDS011;6473;51.552;6.716;2024-03-06T00:12:19;22.02;;;15.07;;
12816;SDS011;6473;51.552;6.716;2024-03-06T00:14:46;25.67;;;16.60;;
12816;SDS011;6473;51.552;6.716;2024-03-06T00:17:13;26.65;;;16.25;;
12816;SDS011;6473;51.552;6.716;2024-03-06T00:19:40;25.58;;;16.20;;
12816;SDS011;6473;51.552;6.716;2024-03-06T00:22:08;27.92;;;16.35;;
12816;SDS011;6473;51.552;6.716;2024-03-06T00:24:35;27.02;;;16.35;;
12816;SDS011;6473;51.552;6.716;2024-03-06T00:27:03;26.30;;;16.52;;
12816;SDS011;6473;51.552;6.716;2024-03-06T00:29:31;26.15;;;16.90;;
12816;SDS011;6473;51.552;6.716;2024-03-06T00:31:57;30.10;;;17.77;;
12816;SDS011;6473;51.552;6.716;2024-03-06T00:34:24;30.10;;;17.73;;
12816;SDS011;6473;51.552;6.716;2024-03-06T00:36:52;38.40;;;18.08;;
12816;SDS011;6473;51.552;6.716;2024-03-06T00:39:20;32.57;;;18.50;;
12816;SDS011;6473;51.552;6.716;2024-03-06T00:41:47;36.73;;;19.57;;
12816;SDS011;6473;51.552;6.716;2024-03-06T00:44:15;30.30;;;19.05;;
12816;SDS011;6473;51.552;6.716;2024-03-06T00:46:42;29.02;;;18.10;;
12816;SDS011;6473;51.552;6.716;2024-03-06T00:49:09;31.30;;;17.85;;
12816;SDS011;6473;51.552;6.716;2024-03-06T00:51:36;28.25;;;17.25;;
12816;SDS011;6473;51.552;6.716;2024-03-06T00:54:03;27.70;;;17.50;;
12816;SDS011;6473;51.552;6.716;2024-03-06T00:56:30;28.92;;;17.27;;
12816;SDS011;6473;51.552;6.716;2024-03-06T00:58:57;26.95;;;16.80;;
12816;SDS011;6473;51.552;6.716;2024-03-06T01:01:25;31.43;;;17.83;;
12816;SDS011;6473;51.552;6.716;2024-03-06T01:03:52;26.30;;;16.98;;
12816;SDS011;6473;51.552;6.716;2024-03-06T01:06:20;30.58;;;17.95;;
12816;SDS011;6473;51.552;6.716;2024-03-06T01:08:47;26.38;;;17.40;;
12816;SDS011;6473;51.552;6.716;2024-03-06T01:11:14;27.38;;;16.13;;
12816;SDS011;6473;51.552;6.716;2024-03-06T01:13:41;25.92;;;16.33;;
12816;SDS011;6473;51.552;6.716;2024-03-06T01:16:07;26.83;;;16.70;;
12816;SDS011;6473;51.552;6.716;2024-03-06T01:18:36;25.45;;;16.50;;
12816;SDS011;6473;51.552;6.716;2024-03-06T01:21:03;28.17;;;17.20;;
12816;SDS011;6473;51.552;6.716;2024-03-06T01:23:30;26.55;;;16.15;;
12816;SDS011;6473;51.552;6.716;2024-03-06T01:25:57;26.60;;;17.13;;
12816;SDS011;6473;51.552;6.716;2024-03-06T01:28:24;33.50;;;18.13;;
12816;SDS011;6473;51.552;6.716;2024-03-06T01:30:51;31.80;;;17.95;;
12816;SDS011;6473;51.552;6.716;2024-03-06T01:33:17;26.90;;;16.17;;
12816;SDS011;6473;51.552;6.716;2024-03-06T01:35:46;30.08;;;17.20;;
12816;SDS011;6473;51.552;6.716;2024-03-06T01:38:13;34.35;;;19.13;;
12816;SDS011;6473;51.552;6.716;2024-03-06T01:40:42;27.80;;;16.92;;
12816;SDS011;6473;51.552;6.716;2024-03-06T01:43:17;32.63;;;18.13;;
12816;SDS011;6473;51.552;6.716;2024-03-06T01:45:45;33.15;;;17.85;;
12816;SDS011;6473;51.552;6.716;2024-03-06T01:48:13;27.88;;;18.02;;
12816;SDS011;6473;51.552;6.716;2024-03-06T01:50:41;31.75;;;19.30;;
12816;SDS011;6473;51.552;6.716;2024-03-06T01:53:09;31.73;;;19.73;;
12816;SDS011;6473;51.552;6.716;2024-03-06T01:55:36;38.40;;;20.50;;
12816;SDS011;6473;51.552;6.716;2024-03-06T01:58:03;31.57;;;19.50;;
12816;SDS011;6473;51.552;6.716;2024-03-06T02:00:31;32.97;;;20.77;;
12816;SDS011;6473;51.552;6.716;2024-03-06T02:02:59;39.03;;;21.65;;
12816;SDS011;6473;51.552;6.716;2024-03-06T02:05:26;35.10;;;21.17;;
12816;SDS011;6473;51.552;6.716;2024-03-06T02:07:54;34.97;;;21.47;;
12816;SDS011;6473;51.552;6.716;2024-03-06T02:10:25;37.50;;;22.43;;
12816;SDS011;6473;51.552;6.716;2024-03-06T02:12:52;34.67;;;20.93;;
12816;SDS011;6473;51.552;6.716;2024-03-06T02:15:19;37.17;;;20.73;;
12816;SDS011;6473;51.552;6.716;2024-03-06T02:17:46;41.90;;;22.10;;
12816;SDS011;6473;51.552;6.716;2024-03-06T02:20:13;40.93;;;22.50;;
12816;SDS011;6473;51.552;6.716;2024-03-06T02:22:42;39.50;;;23.90;;
12816;SDS011;6473;51.552;6.716;2024-03-06T02:25:09;40.87;;;23.53;;
12816;SDS011;6473;51.552;6.716;2024-03-06T02:27:37;40.17;;;24.10;;
12816;SDS011;6473;51.552;6.716;2024-03-06T02:30:04;39.63;;;23.83;;
12816;SDS011;6473;51.552;6.716;2024-03-06T02:32:34;44.27;;;24.70;;
12816;SDS011;6473;51.552;6.716;2024-03-06T02:35:01;46.90;;;24.80;;
12816;SDS011;6473;51.552;6.716;2024-03-06T02:37:28;43.17;;;24.90;;
12816;SDS011;6473;51.552;6.716;2024-03-06T02:39:57;46.73;;;24.77;;
12816;SDS011;6473;51.552;6.716;2024-03-06T02:42:24;40.57;;;23.57;;
12816;SDS011;6473;51.552;6.716;2024-03-06T02:44:52;45.07;;;24.17;;
12816;SDS011;6473;51.552;6.716;2024-03-06T02:47:19;40.00;;;22.83;;
12816;SDS011;6473;51.552;6.716;2024-03-06T02:49:46;42.42;;;23.52;;
12816;SDS011;6473;51.552;6.716;2024-03-06T02:52:13;37.57;;;23.40;;
12816;SDS011;6473;51.552;6.716;2024-03-06T02:54:40;37.97;;;21.70;;
12816;SDS011;6473;51.552;6.716;2024-03-06T02:57:09;37.77;;;21.67;;
12816;SDS011;6473;51.552;6.716;2024-03-06T02:59:35;34.00;;;21.87;;
12816;SDS011;6473;51.552;6.716;2024-03-06T03:02:05;36.70;;;21.60;;
12816;SDS011;6473;51.552;6.716;2024-03-06T03:04:32;39.53;;;23.02;;
12816;SDS011;6473;51.552;6.716;2024-03-06T03:06:59;40.20;;;22.67;;
12816;SDS011;6473;51.552;6.716;2024-03-06T03:09:26;45.07;;;24.00;;
12816;SDS011;6473;51.552;6.716;2024-03-06T03:11:53;41.37;;;22.90;;
12816;SDS011;6473;51.552;6.716;2024-03-06T03:14:21;41.13;;;21.87;;
12816;SDS011;6473;51.552;6.716;2024-03-06T03:16:48;29.23;;;18.10;;
12816;SDS011;6473;51.552;6.716;2024-03-06T03:19:15;31.20;;;18.80;;
12816;SDS011;6473;51.552;6.716;2024-03-06T03:21:43;34.10;;;19.63;;
12816;SDS011;6473;51.552;6.716;2024-03-06T03:24:10;34.93;;;20.57;;
12816;SDS011;6473;51.552;6.716;2024-03-06T03:26:37;34.47;;;19.33;;
12816;SDS011;6473;51.552;6.716;2024-03-06T03:29:07;37.47;;;20.77;;
12816;SDS011;6473;51.552;6.716;2024-03-06T03:31:35;32.37;;;20.07;;
12816;SDS011;6473;51.552;6.716;2024-03-06T03:34:03;39.03;;;21.83;;
12816;SDS011;6473;51.552;6.716;2024-03-06T03:36:30;36.17;;;21.33;;
12816;SDS011;6473;51.552;6.716;2024-03-06T03:38:58;39.93;;;21.60;;
12816;SDS011;6473;51.552;6.716;2024-03-06T03:41:25;37.70;;;20.93;;
12816;SDS011;6473;51.552;6.716;2024-03-06T03:43:52;33.87;;;18.87;;
12816;SDS011;6473;51.552;6.716;2024-03-06T03:46:19;34.30;;;19.67;;
12816;SDS011;6473;51.552;6.716;2024-03-06T03:48:47;32.97;;;19.87;;
12816;SDS011;6473;51.552;6.716;2024-03-06T03:51:13;39.00;;;20.47;;
12816;SDS011;6473;51.552;6.716;2024-03-06T03:53:40;35.07;;;20.30;;
12816;SDS011;6473;51.552;6.716;2024-03-06T03:56:07;38.23;;;19.43;;
12816;SDS011;6473;51.552;6.716;2024-03-06T03:58:34;41.77;;;22.13;;
12816;SDS011;6473;51.552;6.716;2024-03-06T04:01:02;40.17;;;22.57;;
12816;SDS011;6473;51.552;6.716;2024-03-06T04:03:29;39.60;;;21.20;;
12816;SDS011;6473;51.552;6.716;2024-03-06T04:05:57;37.57;;;21.50;;
12816;SDS011;6473;51.552;6.716;2024-03-06T04:08:24;36.27;;;20.60;;
12816;SDS011;6473;51.552;6.716;2024-03-06T04:10:51;36.80;;;20.97;;
12816;SDS011;6473;51.552;6.716;2024-03-06T04:13:18;36.60;;;21.00;;
12816;SDS011;6473;51.552;6.716;2024-03-06T04:15:46;35.83;;;21.07;;
12816;SDS011;6473;51.552;6.716;2024-03-06T04:18:14;38.27;;;21.77;;
12816;SDS011;6473;51.552;6.716;2024-03-06T04:20:41;38.23;;;21.20;;
12816;SDS011;6473;51.552;6.716;2024-03-06T04:23:10;39.43;;;22.63;;
12816;SDS011;6473;51.552;6.716;2024-03-06T04:25:37;37.97;;;21.80;;
12816;SDS011;6473;51.552;6.716;2024-03-06T04:28:04;41.50;;;22.87;;
12816;SDS011;6473;51.552;6.716;2024-03-06T04:30:32;39.33;;;22.53;;
12816;SDS011;6473;51.552;6.716;2024-03-06T04:32:59;45.07;;;22.27;;
12816;SDS011;6473;51.552;6.716;2024-03-06T04:35:27;46.20;;;22.43;;
12816;SDS011;6473;51.552;6.716;2024-03-06T04:37:54;43.43;;;21.97;;
12816;SDS011;6473;51.552;6.716;2024-03-06T04:40:22;40.27;;;21.97;;
12816;SDS011;6473;51.552;6.716;2024-03-06T04:42:50;38.03;;;21.60;;
12816;SDS011;6473;51.552;6.716;2024-03-06T04:45:17;41.30;;;22.33;;
12816;SDS011;6473;51.552;6.716;2024-03-06T04:47:44;42.77;;;22.90;;
12816;SDS011;6473;51.552;6.716;2024-03-06T04:50:11;41.77;;;22.63;;
12816;SDS011;6473;51.552;6.716;2024-03-06T04:52:39;39.43;;;20.93;;
12816;SDS011;6473;51.552;6.716;2024-03-06T04:55:07;42.63;;;23.10;;
12816;SDS011;6473;51.552;6.716;2024-03-06T04:57:38;42.03;;;22.63;;
12816;SDS011;6473;51.552;6.716;2024-03-06T05:00:07;40.73;;;22.00;;
12816;SDS011;6473;51.552;6.716;2024-03-06T05:02:35;43.40;;;21.30;;
12816;SDS011;6473;51.552;6.716;2024-03-06T05:05:03;41.07;;;21.93;;
12816;SDS011;6473;51.552;6.716;2024-03-06T05:07:30;40.67;;;21.80;;
12816;SDS011;6473;51.552;6.716;2024-03-06T05:09:58;35.03;;;21.13;;
12816;SDS011;6473;51.552;6.716;2024-03-06T05:12:25;35.10;;;19.90;;
12816;SDS011;6473;51.552;6.716;2024-03-06T05:14:54;38.80;;;20.23;;
12816;SDS011;6473;51.552;6.716;2024-03-06T05:17:21;34.67;;;19.33;;
12816;SDS011;6473;51.552;6.716;2024-03-06T05:19:49;33.13;;;19.97;;
12816;SDS011;6473;51.552;6.716;2024-03-06T05:22:16;32.33;;;19.70;;
12816;SDS011;6473;51.552;6.716;2024-03-06T05:24:43;38.10;;;19.33;;
12816;SDS011;6473;51.552;6.716;2024-03-06T05:27:11;33.27;;;18.50;;
12816;SDS011;6473;51.552;6.716;2024-03-06T05:29:41;36.73;;;18.40;;
12816;SDS011;6473;51.552;6.716;2024-03-06T05:32:10;34.87;;;20.60;;
12816;SDS011;6473;51.552;6.716;2024-03-06T05:34:36;34.43;;;19.63;;
12816;SDS011;6473;51.552;6.716;2024-03-06T05:37:04;37.33;;;18.37;;
12816;SDS011;6473;51.552;6.716;2024-03-06T05:39:31;36.27;;;20.40;;
12816;SDS011;6473;51.552;6.716;2024-03-06T05:42:01;35.97;;;20.17;;
12816;SDS011;6473;51.552;6.716;2024-03-06T05:44:29;37.10;;;19.77;;
12816;SDS011;6473;51.552;6.716;2024-03-06T05:46:57;35.87;;;20.73;;
12816;SDS011;6473;51.552;6.716;2024-03-06T05:49:25;43.07;;;21.17;;
12816;SDS011;6473;51.552;6.716;2024-03-06T05:51:52;40.33;;;20.73;;
12816;SDS011;6473;51.552;6.716;2024-03-06T05:54:20;38.27;;;21.37;;
12816;SDS011;6473;51.552;6.716;2024-03-06T05:56:47;44.53;;;22.00;;
12816;SDS011;6473;51.552;6.716;2024-03-06T05:59:16;37.73;;;20.10;;
12816;SDS011;6473;51.552;6.716;2024-03-06T06:01:43;37.17;;;20.50;;
12816;SDS011;6473;51.552;6.716;2024-03-06T06:04:10;45.67;;;21.40;;
12816;SDS011;6473;51.552;6.716;2024-03-06T06:06:40;38.57;;;21.73;;
12816;SDS011;6473;51.552;6.716;2024-03-06T06:09:07;41.30;;;21.63;;
12816;SDS011;6473;51.552;6.716;2024-03-06T06:11:37;37.80;;;19.70;;
12816;SDS011;6473;51.552;6.716;2024-03-06T06:14:05;42.10;;;21.33;;
12816;SDS011;6473;51.552;6.716;2024-03-06T06:16:36;35.17;;;19.50;;
12816;SDS011;6473;51.552;6.716;2024-03-06T06:19:03;35.30;;;19.27;;
12816;SDS011;6473;51.552;6.716;2024-03-06T06:21:31;32.50;;;18.80;;
12816;SDS011;6473;51.552;6.716;2024-03-06T06:24:02;33.60;;;19.77;;
12816;SDS011;6473;51.552;6.716;2024-03-06T06:26:29;39.27;;;19.73;;
12816;SDS011;6473;51.552;6.716;2024-03-06T06:28:57;36.83;;;19.00;;
12816;SDS011;6473;51.552;6.716;2024-03-06T06:31:24;33.70;;;19.33;;
12816;SDS011;6473;51.552;6.716;2024-03-06T06:33:52;36.00;;;19.77;;
12816;SDS011;6473;51.552;6.716;2024-03-06T06:36:19;32.40;;;18.77;;
12816;SDS011;6473;51.552;6.716;2024-03-06T06:38:46;37.53;;;19.03;;
12816;SDS011;6473;51.552;6.716;2024-03-06T06:41:15;42.20;;;21.83;;
12816;SDS011;6473;51.552;6.716;2024-03-06T06:43:44;38.20;;;19.93;;
12816;SDS011;6473;51.552;6.716;2024-03-06T06:46:11;35.13;;;20.53;;
12816;SDS011;6473;51.552;6.716;2024-03-06T06:48:38;34.73;;;20.17;;
12816;SDS011;6473;51.552;6.716;2024-03-06T06:51:05;35.80;;;19.20;;
12816;SDS011;6473;51.552;6.716;2024-03-06T06:53:32;37.97;;;21.60;;
12816;SDS011;6473;51.552;6.716;2024-03-06T06:55:58;42.70;;;23.60;;
12816;SDS011;6473;51.552;6.716;2024-03-06T06:58:26;39.70;;;23.27;;
12816;SDS011;6473;51.552;6.716;2024-03-06T07:00:53;45.77;;;22.83;;
12816;SDS011;6473;51.552;6.716;2024-03-06T07:03:20;44.33;;;22.40;;
12816;SDS011;6473;51.552;6.716;2024-03-06T07:05:51;38.77;;;21.77;;
12816;SDS011;6473;51.552;6.716;2024-03-06T07:08:19;37.03;;;20.67;;
12816;SDS011;6473;51.552;6.716;2024-03-06T07:10:46;35.30;;;20.50;;
12816;SDS011;6473;51.552;6.716;2024-03-06T07:13:13;38.57;;;22.17;;
12816;SDS011;6473;51.552;6.716;2024-03-06T07:15:41;39.77;;;20.87;;
12816;SDS011;6473;51.552;6.716;2024-03-06T07:18:08;36.27;;;19.97;;
12816;SDS011;6473;51.552;6.716;2024-03-06T07:20:34;41.70;;;20.63;;
12816;SDS011;6473;51.552;6.716;2024-03-06T07:23:01;38.83;;;21.98;;
12816;SDS011;6473;51.552;6.716;2024-03-06T07:25:29;44.87;;;22.63;;
12816;SDS011;6473;51.552;6.716;2024-03-06T07:27:56;41.60;;;22.83;;
12816;SDS011;6473;51.552;6.716;2024-03-06T07:30:23;44.67;;;23.20;;
12816;SDS011;6473;51.552;6.716;2024-03-06T07:32:51;52.47;;;25.17;;
12816;SDS011;6473;51.552;6.716;2024-03-06T07:35:18;48.53;;;25.15;;
12816;SDS011;6473;51.552;6.716;2024-03-06T07:37:45;46.72;;;26.75;;
12816;SDS011;6473;51.552;6.716;2024-03-06T07:40:12;52.80;;;26.00;;
12816;SDS011;6473;51.552;6.716;2024-03-06T07:42:39;56.42;;;27.30;;
12816;SDS011;6473;51.552;6.716;2024-03-06T07:45:06;51.47;;;26.80;;
12816;SDS011;6473;51.552;6.716;2024-03-06T07:47:34;51.35;;;26.23;;
12816;SDS011;6473;51.552;6.716;2024-03-06T07:50:04;54.55;;;24.98;;
12816;SDS011;6473;51.552;6.716;2024-03-06T07:52:33;50.55;;;27.52;;
12816;SDS011;6473;51.552;6.716;2024-03-06T07:55:01;56.22;;;27.85;;
12816;SDS011;6473;51.552;6.716;2024-03-06T07:57:28;56.53;;;28.17;;
12816;SDS011;6473;51.552;6.716;2024-03-06T07:59:54;53.08;;;28.25;;
12816;SDS011;6473;51.552;6.716;2024-03-06T08:02:21;57.97;;;29.27;;
12816;SDS011;6473;51.552;6.716;2024-03-06T08:04:48;55.88;;;28.30;;
12816;SDS011;6473;51.552;6.716;2024-03-06T08:07:17;51.42;;;28.60;;
12816;SDS011;6473;51.552;6.716;2024-03-06T08:09:44;49.05;;;28.15;;
12816;SDS011;6473;51.552;6.716;2024-03-06T08:12:11;53.67;;;28.08;;
12816;SDS011;6473;51.552;6.716;2024-03-06T08:14:37;51.70;;;27.58;;
12816;SDS011;6473;51.552;6.716;2024-03-06T08:17:04;50.92;;;27.95;;
12816;SDS011;6473;51.552;6.716;2024-03-06T08:19:31;43.20;;;26.50;;
12816;SDS011;6473;51.552;6.716;2024-03-06T08:21:58;41.42;;;25.55;;
12816;SDS011;6473;51.552;6.716;2024-03-06T08:24:27;37.83;;;23.85;;
12816;SDS011;6473;51.552;6.716;2024-03-06T08:26:54;35.35;;;22.77;;
12816;SDS011;6473;51.552;6.716;2024-03-06T08:29:22;30.17;;;20.98;;
12816;SDS011;6473;51.552;6.716;2024-03-06T08:31:49;27.90;;;19.55;;
12816;SDS011;6473;51.552;6.716;2024-03-06T08:34:16;27.73;;;18.45;;
12816;SDS011;6473;51.552;6.716;2024-03-06T08:36:42;23.85;;;17.63;;
12816;SDS011;6473;51.552;6.716;2024-03-06T08:39:09;24.35;;;16.77;;
12816;SDS011;6473;51.552;6.716;2024-03-06T08:41:40;24.30;;;16.50;;
12816;SDS011;6473;51.552;6.716;2024-03-06T08:44:07;21.75;;;15.95;;
12816;SDS011;6473;51.552;6.716;2024-03-06T08:46:34;25.30;;;16.35;;
12816;SDS011;6473;51.552;6.716;2024-03-06T08:49:01;25.15;;;17.35;;
12816;SDS011;6473;51.552;6.716;2024-03-06T08:51:27;23.45;;;15.85;;
12816;SDS011;6473;51.552;6.716;2024-03-06T08:53:54;27.40;;;18.75;;
12816;SDS011;6473;51.552;6.716;2024-03-06T08:56:21;25.45;;;18.20;;
12816;SDS011;6473;51.552;6.716;2024-03-06T08:58:49;29.10;;;18.67;;
12816;SDS011;6473;51.552;6.716;2024-03-06T09:01:16;34.08;;;19.15;;
12816;SDS011;6473;51.552;6.716;2024-03-06T09:03:43;28.35;;;18.13;;
12816;SDS011;6473;51.552;6.716;2024-03-06T09:06:09;31.02;;;18.05;;
12816;SDS011;6473;51.552;6.716;2024-03-06T09:08:37;29.42;;;18.17;;
12816;SDS011;6473;51.552;6.716;2024-03-06T09:11:04;31.35;;;18.95;;
12816;SDS011;6473;51.552;6.716;2024-03-06T09:13:32;30.08;;;18.67;;
12816;SDS011;6473;51.552;6.716;2024-03-06T09:16:00;31.77;;;18.58;;
12816;SDS011;6473;51.552;6.716;2024-03-06T09:18:27;29.58;;;19.42;;
12816;SDS011;6473;51.552;6.716;2024-03-06T09:20:54;31.73;;;18.60;;
12816;SDS011;6473;51.552;6.716;2024-03-06T09:23:21;33.28;;;18.65;;
12816;SDS011;6473;51.552;6.716;2024-03-06T09:25:48;26.95;;;18.30;;
12816;SDS011;6473;51.552;6.716;2024-03-06T09:28:14;25.20;;;17.20;;
12816;SDS011;6473;51.552;6.716;2024-03-06T09:30:41;31.15;;;19.83;;
12816;SDS011;6473;51.552;6.716;2024-03-06T09:33:09;27.77;;;18.65;;
12816;SDS011;6473;51.552;6.716;2024-03-06T09:35:36;28.67;;;19.05;;
12816;SDS011;6473;51.552;6.716;2024-03-06T09:38:03;29.90;;;18.10;;
12816;SDS011;6473;51.552;6.716;2024-03-06T09:40:30;25.88;;;18.02;;
12816;SDS011;6473;51.552;6.716;2024-03-06T09:42:57;23.50;;;16.75;;
12816;SDS011;6473;51.552;6.716;2024-03-06T09:45:24;26.00;;;17.35;;
12816;SDS011;6473;51.552;6.716;2024-03-06T09:47:51;26.63;;;18.02;;
12816;SDS011;6473;51.552;6.716;2024-03-06T09:50:19;27.67;;;17.55;;
12816;SDS011;6473;51.552;6.716;2024-03-06T09:52:51;26.90;;;17.50;;
12816;SDS011;6473;51.552;6.716;2024-03-06T09:55:20;26.75;;;19.05;;
12816;SDS011;6473;51.552;6.716;2024-03-06T09:57:48;28.20;;;20.63;;
12816;SDS011;6473;51.552;6.716;2024-03-06T10:00:15;30.23;;;20.17;;
12816;SDS011;6473;51.552;6.716;2024-03-06T10:02:46;30.58;;;21.58;;
12816;SDS011;6473;51.552;6.716;2024-03-06T10:05:21;33.60;;;22.52;;
12816;SDS011;6473;51.552;6.716;2024-03-06T10:07:50;34.85;;;24.55;;
12816;SDS011;6473;51.552;6.716;2024-03-06T10:10:17;35.42;;;25.30;;
12816;SDS011;6473;51.552;6.716;2024-03-06T10:12:45;33.50;;;23.23;;
12816;SDS011;6473;51.552;6.716;2024-03-06T10:15:13;34.88;;;25.25;;
12816;SDS011;6473;51.552;6.716;2024-03-06T10:17:40;39.83;;;28.15;;
12816;SDS011;6473;51.552;6.716;2024-03-06T10:20:16;38.35;;;25.95;;
12816;SDS011;6473;51.552;6.716;2024-03-06T10:22:46;44.22;;;28.92;;
12816;SDS011;6473;51.552;6.716;2024-03-06T10:25:15;42.15;;;29.83;;
12816;SDS011;6473;51.552;6.716;2024-03-06T10:27:44;41.65;;;28.85;;
12816;SDS011;6473;51.552;6.716;2024-03-06T10:30:12;42.78;;;29.42;;
12816;SDS011;6473;51.552;6.716;2024-03-06T10:32:41;43.83;;;30.35;;
12816;SDS011;6473;51.552;6.716;2024-03-06T10:35:17;39.22;;;27.42;;
12816;SDS011;6473;51.552;6.716;2024-03-06T10:37:47;44.83;;;30.38;;
12816;SDS011;6473;51.552;6.716;2024-03-06T10:40:15;50.20;;;32.88;;
12816;SDS011;6473;51.552;6.716;2024-03-06T10:42:44;45.38;;;31.35;;
12816;SDS011;6473;51.552;6.716;2024-03-06T10:45:13;45.28;;;33.17;;
12816;SDS011;6473;51.552;6.716;2024-03-06T10:47:42;47.42;;;33.47;;
12816;SDS011;6473;51.552;6.716;2024-03-06T10:50:14;42.55;;;30.98;;
12816;SDS011;6473;51.552;6.716;2024-03-06T10:52:41;41.33;;;30.35;;
12816;SDS011;6473;51.552;6.716;2024-03-06T10:55:13;44.13;;;31.33;;
12816;SDS011;6473;51.552;6.716;2024-03-06T10:57:43;43.80;;;31.75;;
12816;SDS011;6473;51.552;6.716;2024-03-06T11:00:12;45.15;;;32.15;;
12816;SDS011;6473;51.552;6.716;2024-03-06T11:02:45;43.83;;;30.83;;
12816;SDS011;6473;51.552;6.716;2024-03-06T11:05:14;44.33;;;31.95;;
12816;SDS011;6473;51.552;6.716;2024-03-06T11:07:41;46.40;;;31.83;;
12816;SDS011;6473;51.552;6.716;2024-03-06T11:10:09;43.05;;;31.80;;
12816;SDS011;6473;51.552;6.716;2024-03-06T11:12:42;39.83;;;29.88;;
12816;SDS011;6473;51.552;6.716;2024-03-06T11:15:13;38.45;;;28.83;;
12816;SDS011;6473;51.552;6.716;2024-03-06T11:17:41;36.65;;;28.23;;
12816;SDS011;6473;51.552;6.716;2024-03-06T11:20:12;41.38;;;29.50;;
12816;SDS011;6473;51.552;6.716;2024-03-06T11:23:07;39.45;;;29.27;;
12816;SDS011;6473;51.552;6.716;2024-03-06T11:28:30;37.65;;;28.95;;
12816;SDS011;6473;51.552;6.716;2024-03-06T11:30:59;40.00;;;28.30;;
12816;SDS011;6473;51.552;6.716;2024-03-06T11:33:28;34.83;;;27.08;;
12816;SDS011;6473;51.552;6.716;2024-03-06T11:36:17;34.85;;;24.77;;
12816;SDS011;6473;51.552;6.716;2024-03-06T11:38:52;35.03;;;24.58;;
12816;SDS011;6473;51.552;6.716;2024-03-06T11:41:20;32.72;;;24.73;;
12816;SDS011;6473;51.552;6.716;2024-03-06T11:43:51;30.83;;;23.13;;
12816;SDS011;6473;51.552;6.716;2024-03-06T11:46:19;29.92;;;22.05;;
12816;SDS011;6473;51.552;6.716;2024-03-06T11:48:53;31.23;;;21.13;;
12816;SDS011;6473;51.552;6.716;2024-03-06T11:51:20;27.50;;;20.30;;
12816;SDS011;6473;51.552;6.716;2024-03-06T11:53:50;27.52;;;20.08;;
12816;SDS011;6473;51.552;6.716;2024-03-06T11:56:19;30.38;;;21.27;;
12816;SDS011;6473;51.552;6.716;2024-03-06T11:58:46;33.58;;;22.67;;
12816;SDS011;6473;51.552;6.716;2024-03-06T12:01:15;36.70;;;24.27;;
12816;SDS011;6473;51.552;6.716;2024-03-06T12:03:43;33.50;;;23.30;;
12816;SDS011;6473;51.552;6.716;2024-03-06T12:06:10;30.85;;;21.60;;
12816;SDS011;6473;51.552;6.716;2024-03-06T12:08:38;29.38;;;21.17;;
12816;SDS011;6473;51.552;6.716;2024-03-06T12:11:06;32.10;;;22.17;;
12816;SDS011;6473;51.552;6.716;2024-03-06T12:13:33;29.13;;;20.95;;
12816;SDS011;6473;51.552;6.716;2024-03-06T12:16:05;30.63;;;21.25;;
12816;SDS011;6473;51.552;6.716;2024-03-06T12:18:34;31.63;;;23.05;;
12816;SDS011;6473;51.552;6.716;2024-03-06T12:21:01;34.65;;;23.15;;
12816;SDS011;6473;51.552;6.716;2024-03-06T12:23:29;36.45;;;23.17;;
12816;SDS011;6473;51.552;6.716;2024-03-06T12:26:02;32.75;;;22.85;;
12816;SDS011;6473;51.552;6.716;2024-03-06T12:28:30;29.65;;;21.00;;
12816;SDS011;6473;51.552;6.716;2024-03-06T12:30:57;33.55;;;21.23;;
12816;SDS011;6473;51.552;6.716;2024-03-06T12:33:26;32.47;;;21.67;;
12816;SDS011;6473;51.552;6.716;2024-03-06T12:36:01;34.10;;;20.63;;
12816;SDS011;6473;51.552;6.716;2024-03-06T12:38:29;32.35;;;20.63;;
12816;SDS011;6473;51.552;6.716;2024-03-06T12:40:57;28.10;;;19.80;;
12816;SDS011;6473;51.552;6.716;2024-03-06T12:43:24;29.17;;;20.10;;
12816;SDS011;6473;51.552;6.716;2024-03-06T12:45:51;31.70;;;22.35;;
12816;SDS011;6473;51.552;6.716;2024-03-06T12:48:20;32.67;;;20.75;;
12816;SDS011;6473;51.552;6.716;2024-03-06T12:50:47;28.58;;;20.83;;
12816;SDS011;6473;51.552;6.716;2024-03-06T12:53:18;33.25;;;22.48;;
12816;SDS011;6473;51.552;6.716;2024-03-06T12:55:45;33.25;;;23.10;;
12816;SDS011;6473;51.552;6.716;2024-03-06T12:58:13;32.95;;;23.63;;
12816;SDS011;6473;51.552;6.716;2024-03-06T13:00:40;42.72;;;25.52;;
12816;SDS011;6473;51.552;6.716;2024-03-06T13:03:07;38.72;;;24.25;;
12816;SDS011;6473;51.552;6.716;2024-03-06T13:05:35;35.33;;;23.58;;
12816;SDS011;6473;51.552;6.716;2024-03-06T13:08:02;35.03;;;23.83;;
12816;SDS011;6473;51.552;6.716;2024-03-06T13:10:30;33.65;;;22.35;;
12816;SDS011;6473;51.552;6.716;2024-03-06T13:12:57;37.70;;;22.75;;
12816;SDS011;6473;51.552;6.716;2024-03-06T13:15:24;34.95;;;22.83;;
12816;SDS011;6473;51.552;6.716;2024-03-06T13:23:57;31.67;;;22.17;;
12816;SDS011;6473;51.552;6.716;2024-03-06T13:26:25;29.75;;;21.88;;
12816;SDS011;6473;51.552;6.716;2024-03-06T13:28:52;27.15;;;20.30;;
12816;SDS011;6473;51.552;6.716;2024-03-06T13:31:19;26.08;;;21.77;;
12816;SDS011;6473;51.552;6.716;2024-03-06T13:33:46;26.20;;;21.58;;
12816;SDS011;6473;51.552;6.716;2024-03-06T13:36:14;25.10;;;20.77;;
12816;SDS011;6473;51.552;6.716;2024-03-06T13:38:41;27.30;;;21.67;;
12816;SDS011;6473;51.552;6.716;2024-03-06T13:41:08;22.27;;;19.63;;
12816;SDS011;6473;51.552;6.716;2024-03-06T13:43:36;24.20;;;20.63;;
12816;SDS011;6473;51.552;6.716;2024-03-06T13:46:03;23.23;;;19.98;;
12816;SDS011;6473;51.552;6.716;2024-03-06T13:48:30;17.00;;;15.30;;
12816;SDS011;6473;51.552;6.716;2024-03-06T13:50:57;14.02;;;12.63;;
12816;SDS011;6473;51.552;6.716;2024-03-06T13:53:24;15.27;;;13.82;;
12816;SDS011;6473;51.552;6.716;2024-03-06T13:55:50;14.90;;;13.40;;
12816;SDS011;6473;51.552;6.716;2024-03-06T13:58:18;14.75;;;13.38;;
12816;SDS011;6473;51.552;6.716;2024-03-06T14:00:46;14.45;;;13.05;;
12816;SDS011;6473;51.552;6.716;2024-03-06T14:03:13;13.43;;;12.18;;
12816;SDS011;6473;51.552;6.716;2024-03-06T14:05:40;14.20;;;12.90;;
12816;SDS011;6473;51.552;6.716;2024-03-06T14:08:07;16.45;;;15.00;;
12816;SDS011;6473;51.552;6.716;2024-03-06T14:10:37;16.40;;;14.80;;
12816;SDS011;6473;51.552;6.716;2024-03-06T14:13:04;15.60;;;14.30;;
12816;SDS011;6473;51.552;6.716;2024-03-06T14:15:32;15.57;;;13.93;;
12816;SDS011;6473;51.552;6.716;2024-03-06T14:18:00;15.05;;;13.52;;
12816;SDS011;6473;51.552;6.716;2024-03-06T14:20:27;15.80;;;14.30;;
12816;SDS011;6473;51.552;6.716;2024-03-06T14:22:54;13.82;;;12.60;;
12816;SDS011;6473;51.552;6.716;2024-03-06T14:25:21;13.20;;;12.05;;
12816;SDS011;6473;51.552;6.716;2024-03-06T14:27:48;14.70;;;13.25;;
12816;SDS011;6473;51.552;6.716;2024-03-06T14:30:15;13.23;;;12.02;;
12816;SDS011;6473;51.552;6.716;2024-03-06T14:32:44;14.20;;;12.88;;
12816;SDS011;6473;51.552;6.716;2024-03-06T14:35:12;13.05;;;11.85;;
12816;SDS011;6473;51.552;6.716;2024-03-06T14:37:40;12.05;;;10.77;;
12816;SDS011;6473;51.552;6.716;2024-03-06T14:40:08;12.48;;;11.15;;
12816;SDS011;6473;51.552;6.716;2024-03-06T14:42:36;16.52;;;13.40;;
12816;SDS011;6473;51.552;6.716;2024-03-06T14:45:03;12.38;;;11.05;;